createdAt,value
2017-11-07T00:01:44.566Z,17.97
2017-11-07T00:04:13.790Z,19.00
2017-11-07T00:06:42.311Z,17.43
2017-11-07T00:09:10.776Z,16.10
2017-11-07T00:11:39.509Z,15.03
2017-11-07T00:14:08.822Z,18.33
2017-11-07T00:16:38.070Z,16.23
2017-11-07T00:19:07.657Z,17.23
2017-11-07T00:21:36.107Z,16.17
2017-11-07T00:24:05.269Z,17.53
2017-11-07T00:26:33.769Z,15.00
2017-11-07T00:29:02.174Z,14.50
2017-11-07T00:31:31.342Z,17.30
2017-11-07T00:33:59.825Z,16.10
2017-11-07T00:36:28.259Z,11.73
2017-11-07T00:38:56.750Z,13.63
2017-11-07T00:41:25.216Z,12.50
2017-11-07T00:43:53.611Z,13.53
2017-11-07T00:46:22.037Z,14.60
2017-11-07T00:48:51.257Z,14.03
2017-11-07T00:51:19.678Z,12.63
2017-11-07T00:53:48.821Z,13.10
2017-11-07T00:56:18.443Z,12.83
2017-11-07T00:58:46.854Z,13.83
2017-11-07T01:01:15.258Z,12.57
2017-11-07T01:03:43.958Z,13.90
2017-11-07T01:06:12.459Z,15.67
2017-11-07T01:08:40.895Z,15.67
2017-11-07T01:11:09.333Z,16.80
2017-11-07T01:13:37.844Z,15.27
2017-11-07T01:16:06.327Z,15.67
2017-11-07T01:18:34.783Z,14.77
2017-11-07T01:21:03.711Z,13.80
2017-11-07T01:23:32.126Z,14.97
2017-11-07T01:26:01.729Z,13.63
2017-11-07T01:28:30.927Z,12.80
2017-11-07T01:31:00.131Z,14.83
2017-11-07T01:33:29.426Z,16.37
2017-11-07T01:35:57.885Z,15.77
2017-11-07T01:38:26.293Z,15.03
2017-11-07T01:40:55.598Z,15.43
2017-11-07T01:43:24.760Z,15.57
2017-11-07T01:45:53.161Z,15.30
2017-11-07T01:48:22.589Z,16.57
2017-11-07T01:50:51.024Z,14.50
2017-11-07T01:53:19.463Z,17.10
2017-11-07T01:55:47.914Z,16.77
2017-11-07T01:58:17.218Z,15.30
2017-11-07T02:00:45.665Z,18.87
2017-11-07T02:03:14.481Z,16.80
2017-11-07T02:05:43.861Z,18.50
2017-11-07T02:08:12.265Z,19.97
2017-11-07T02:10:40.855Z,17.90
2017-11-07T02:13:10.063Z,20.20
2017-11-07T02:15:38.486Z,15.97
2017-11-07T02:18:07.265Z,19.40
2017-11-07T02:20:35.678Z,18.57
2017-11-07T02:23:05.218Z,16.80
2017-11-07T02:25:33.721Z,16.67
2017-11-07T02:28:02.164Z,19.40
2017-11-07T02:30:30.661Z,17.63
2017-11-07T02:32:59.198Z,14.17
2017-11-07T02:35:27.613Z,17.57
2017-11-07T02:37:56.123Z,16.83
2017-11-07T02:40:24.912Z,16.43
2017-11-07T02:42:53.402Z,15.07
2017-11-07T02:45:21.832Z,19.30
2017-11-07T02:47:50.518Z,15.40
2017-11-07T02:50:19.727Z,17.17
2017-11-07T02:52:48.148Z,20.50
2017-11-07T02:55:16.757Z,20.30
2017-11-07T02:57:45.967Z,18.90
2017-11-07T03:00:14.452Z,18.47
2017-11-07T03:02:43.667Z,16.77
2017-11-07T03:05:12.088Z,20.00
2017-11-07T03:07:41.793Z,19.00
2017-11-07T03:10:10.339Z,18.47
2017-11-07T03:12:38.737Z,18.20
2017-11-07T03:15:07.309Z,16.67
2017-11-07T03:17:35.741Z,17.80
2017-11-07T03:20:04.987Z,19.07
2017-11-07T03:22:33.433Z,16.30
2017-11-07T03:25:03.257Z,18.00
2017-11-07T03:27:32.452Z,16.87
2017-11-07T03:30:01.684Z,17.50
2017-11-07T03:32:30.334Z,18.20
2017-11-07T03:34:59.552Z,18.57
2017-11-07T03:37:27.931Z,15.70
2017-11-07T03:39:56.371Z,15.77
2017-11-07T03:42:24.771Z,18.10
2017-11-07T03:44:54.255Z,17.00
2017-11-07T03:47:22.966Z,14.90
2017-11-07T03:49:52.155Z,16.27
2017-11-07T03:52:20.602Z,14.70
2017-11-07T03:54:49.225Z,13.97
2017-11-07T03:57:17.666Z,14.70
2017-11-07T03:59:46.082Z,16.50
2017-11-07T04:02:15.383Z,17.97
2017-11-07T04:04:44.568Z,14.03
2017-11-07T04:07:12.972Z,14.13
2017-11-07T04:09:42.379Z,16.90
2017-11-07T04:12:10.797Z,12.23
2017-11-07T04:14:39.179Z,16.40
2017-11-07T04:17:07.742Z,13.13
2017-11-07T04:19:36.156Z,11.73
2017-11-07T04:22:04.675Z,13.37
2017-11-07T04:24:33.871Z,14.17
2017-11-07T04:27:03.363Z,11.87
2017-11-07T04:29:32.550Z,13.00
2017-11-07T04:32:01.148Z,11.60
2017-11-07T04:34:30.326Z,14.70
2017-11-07T04:36:58.730Z,14.33
2017-11-07T04:39:28.274Z,14.17
2017-11-07T04:41:56.682Z,15.27
2017-11-07T04:44:25.077Z,16.87
2017-11-07T04:46:53.602Z,12.50
2017-11-07T04:49:21.996Z,13.40
2017-11-07T04:51:50.400Z,12.03
2017-11-07T04:54:18.834Z,12.27
2017-11-07T04:56:47.238Z,12.20
2017-11-07T04:59:15.650Z,11.60
2017-11-07T05:01:44.115Z,10.50
2017-11-07T05:04:12.521Z,14.47
2017-11-07T05:06:41.684Z,11.83
2017-11-07T05:09:10.512Z,12.67
2017-11-07T05:11:39.723Z,14.40
2017-11-07T05:14:08.162Z,13.10
2017-11-07T05:16:36.746Z,12.10
2017-11-07T05:19:05.131Z,11.83
2017-11-07T05:21:33.567Z,12.03
2017-11-07T05:24:02.121Z,14.70
2017-11-07T05:26:31.285Z,12.40
2017-11-07T05:29:00.179Z,12.77
2017-11-07T05:31:28.636Z,13.00
2017-11-07T05:33:57.038Z,12.83
2017-11-07T05:36:25.480Z,10.97
2017-11-07T05:38:54.114Z,10.93
2017-11-07T05:41:22.599Z,11.93
2017-11-07T05:43:51.005Z,12.90
2017-11-07T05:46:20.290Z,11.53
2017-11-07T05:48:49.591Z,10.87
2017-11-07T05:51:18.802Z,11.47
2017-11-07T05:53:47.592Z,12.10
2017-11-07T05:56:16.010Z,10.50
2017-11-07T05:58:45.235Z,10.57
2017-11-07T06:01:14.074Z,12.37
2017-11-07T06:03:42.488Z,11.53
2017-11-07T06:06:10.913Z,12.30
2017-11-07T06:08:40.249Z,9.57
2017-11-07T06:11:08.652Z,12.13
2017-11-07T06:13:37.542Z,12.83
2017-11-07T06:16:06.291Z,12.50
2017-11-07T06:18:34.736Z,13.80
2017-11-07T06:21:03.191Z,15.30
2017-11-07T06:23:32.079Z,11.40
2017-11-07T06:26:00.524Z,13.30
2017-11-07T06:28:28.996Z,11.00
2017-11-07T06:30:58.294Z,11.17
2017-11-07T06:33:26.832Z,12.10
2017-11-07T06:35:55.492Z,10.80
2017-11-07T06:38:24.030Z,10.70
2017-11-07T06:40:53.207Z,13.80
2017-11-07T06:43:21.606Z,12.47
2017-11-07T06:45:50.844Z,12.37
2017-11-07T06:48:19.269Z,14.87
2017-11-07T06:50:47.958Z,12.63
2017-11-07T06:53:17.361Z,11.43
2017-11-07T06:55:45.767Z,12.80
2017-11-07T06:58:14.224Z,11.80
2017-11-07T07:00:43.574Z,14.40
2017-11-07T07:03:12.048Z,12.83
2017-11-07T07:05:40.470Z,12.13
2017-11-07T07:08:09.122Z,12.97
2017-11-07T07:10:37.623Z,11.20
2017-11-07T07:13:06.105Z,11.60
2017-11-07T07:15:34.745Z,10.57
2017-11-07T07:18:04.053Z,11.03
2017-11-07T07:20:32.480Z,13.40
2017-11-07T07:23:01.108Z,12.47
2017-11-07T07:25:29.554Z,11.23
2017-11-07T07:27:58.793Z,11.43
2017-11-07T07:30:27.268Z,8.47
2017-11-07T07:32:55.997Z,11.43
2017-11-07T07:35:24.441Z,10.43
2017-11-07T07:37:53.184Z,12.70
2017-11-07T07:40:22.440Z,11.77
2017-11-07T07:42:51.648Z,10.17
2017-11-07T07:45:20.126Z,11.90
2017-11-07T07:47:48.529Z,10.20
2017-11-07T07:50:16.943Z,10.33
2017-11-07T07:52:46.304Z,10.33
2017-11-07T07:55:14.780Z,11.40
2017-11-07T07:57:44.056Z,12.13
2017-11-07T08:00:12.592Z,13.10
2017-11-07T08:02:41.817Z,12.87
2017-11-07T08:05:10.329Z,9.73
2017-11-07T08:07:38.908Z,11.37
2017-11-07T08:10:07.385Z,10.80
2017-11-07T08:12:35.858Z,12.33
2017-11-07T08:15:04.515Z,10.93
2017-11-07T08:17:33.811Z,12.07
2017-11-07T08:20:02.300Z,12.07
2017-11-07T08:22:30.984Z,12.80
2017-11-07T08:24:59.413Z,13.53
2017-11-07T08:27:28.935Z,12.30
2017-11-07T08:29:57.400Z,12.80
2017-11-07T08:32:25.838Z,12.77
2017-11-07T08:34:54.798Z,14.30
2017-11-07T08:37:23.568Z,12.37
2017-11-07T08:39:52.091Z,13.70
2017-11-07T08:42:21.327Z,13.63
2017-11-07T08:44:50.073Z,14.23
2017-11-07T08:47:18.504Z,12.20
2017-11-07T08:49:47.716Z,11.57
2017-11-07T08:52:16.196Z,11.80
2017-11-07T08:54:44.658Z,13.73
2017-11-07T08:57:13.147Z,10.90
2017-11-07T08:59:41.597Z,13.80
2017-11-07T09:02:10.740Z,11.90
2017-11-07T09:04:39.185Z,12.20
2017-11-07T09:07:07.849Z,12.80
2017-11-07T09:09:37.151Z,11.63
2017-11-07T09:12:06.647Z,10.97
2017-11-07T09:14:37.909Z,12.63
2017-11-07T09:17:06.391Z,11.90
2017-11-07T09:19:35.038Z,12.27
2017-11-07T09:22:03.558Z,14.13
2017-11-07T09:24:31.991Z,12.60
2017-11-07T09:27:00.465Z,12.17
2017-11-07T09:29:29.888Z,9.67
2017-11-07T09:31:59.121Z,12.83
2017-11-07T09:34:27.560Z,11.20
2017-11-07T09:36:56.824Z,13.50
2017-11-07T09:39:25.904Z,12.00
2017-11-07T09:41:54.338Z,12.50
2017-11-07T09:44:23.660Z,12.87
2017-11-07T09:46:52.150Z,12.37
2017-11-07T09:49:20.610Z,11.27
2017-11-07T09:51:49.188Z,11.30
2017-11-07T09:54:18.557Z,12.30
2017-11-07T09:56:47.113Z,12.90
2017-11-07T09:59:16.091Z,10.83
2017-11-07T10:01:44.534Z,11.63
2017-11-07T10:04:14.517Z,11.27
2017-11-07T10:06:43.026Z,11.80
2017-11-07T10:09:11.549Z,11.60
2017-11-07T10:11:39.985Z,11.23
2017-11-07T10:14:08.926Z,12.50
2017-11-07T10:16:38.125Z,12.23
2017-11-07T10:19:08.524Z,11.23
2017-11-07T10:21:37.948Z,13.17
2017-11-07T10:24:06.511Z,13.13
2017-11-07T10:26:35.030Z,13.87
2017-11-07T10:29:03.583Z,11.57
2017-11-07T10:31:32.059Z,11.50
2017-11-07T10:34:02.612Z,11.33
2017-11-07T10:36:31.157Z,13.50
2017-11-07T10:39:00.347Z,14.30
2017-11-07T10:41:28.770Z,14.67
2017-11-07T10:43:57.677Z,14.70
2017-11-07T10:46:26.205Z,12.40
2017-11-07T10:48:54.759Z,12.10
2017-11-07T10:51:23.253Z,13.83
2017-11-07T10:53:51.855Z,12.30
2017-11-07T10:56:21.712Z,9.27
2017-11-07T10:58:50.644Z,12.27
2017-11-07T11:01:19.142Z,11.40
2017-11-07T11:03:48.393Z,12.57
2017-11-07T11:06:17.460Z,11.20
2017-11-07T11:08:45.961Z,11.67
2017-11-07T11:11:14.461Z,12.40
2017-11-07T11:13:43.049Z,14.03
2017-11-07T11:16:11.585Z,13.83
2017-11-07T11:18:40.848Z,12.27
2017-11-07T11:21:09.382Z,13.37
2017-11-07T11:23:38.199Z,13.57
2017-11-07T11:26:06.758Z,13.00
2017-11-07T11:28:36.081Z,13.13
2017-11-07T11:31:05.299Z,10.50
2017-11-07T11:33:33.732Z,10.73
2017-11-07T11:36:02.313Z,12.60
2017-11-07T11:41:07.143Z,14.43
2017-11-07T11:43:36.635Z,12.20
2017-11-07T11:46:05.160Z,13.40
2017-11-07T11:48:34.066Z,14.67
2017-11-07T11:51:02.572Z,12.50
2017-11-07T11:53:31.056Z,13.93
2017-11-07T11:55:59.762Z,14.93
2017-11-07T11:58:29.358Z,12.83
2017-11-07T12:00:58.773Z,8.67
2017-11-07T12:03:28.191Z,10.97
2017-11-07T12:05:56.618Z,11.53
2017-11-07T12:08:25.316Z,13.03
2017-11-07T12:10:54.260Z,13.10
2017-11-07T12:13:22.725Z,12.60
2017-11-07T12:15:52.047Z,13.93
2017-11-07T12:18:24.072Z,12.73
2017-11-07T12:20:52.603Z,13.07
2017-11-07T12:23:22.552Z,12.33
2017-11-07T12:25:51.344Z,12.57
2017-11-07T12:28:20.377Z,12.80
2017-11-07T12:30:49.571Z,13.90
2017-11-07T12:33:18.404Z,13.93
2017-11-07T12:35:47.646Z,13.47
2017-11-07T12:38:16.264Z,12.73
2017-11-07T12:40:45.610Z,12.33
2017-11-07T12:43:14.230Z,12.40
2017-11-07T12:45:42.718Z,13.50
2017-11-07T12:48:11.371Z,14.43
2017-11-07T12:50:52.559Z,11.30
2017-11-07T12:53:21.114Z,12.60
2017-11-07T12:55:50.887Z,12.43
2017-11-07T12:58:19.933Z,10.67
2017-11-07T13:00:48.407Z,11.13
2017-11-07T13:03:16.921Z,11.27
2017-11-07T13:05:45.460Z,11.97
2017-11-07T13:08:13.983Z,11.77
2017-11-07T13:10:43.448Z,12.10
2017-11-07T13:13:11.911Z,11.60
2017-11-07T13:15:40.462Z,11.43
2017-11-07T13:18:08.939Z,12.00
2017-11-07T13:20:38.349Z,10.63
2017-11-07T13:23:12.271Z,11.07
2017-11-07T13:25:40.674Z,12.17
2017-11-07T13:28:09.191Z,11.97
2017-11-07T13:30:38.833Z,11.40
2017-11-07T13:33:07.270Z,9.97
2017-11-07T13:35:36.714Z,10.93
2017-11-07T13:38:05.391Z,10.90
2017-11-07T13:40:33.841Z,11.20
2017-11-07T13:43:03.030Z,10.50
2017-11-07T13:45:34.123Z,9.83
2017-11-07T13:48:02.541Z,10.00
2017-11-07T13:50:31.045Z,10.57
2017-11-07T13:53:00.278Z,10.30
2017-11-07T13:55:28.694Z,10.00
2017-11-07T13:57:57.182Z,11.13
2017-11-07T14:00:27.056Z,11.10
2017-11-07T14:02:56.931Z,10.83
2017-11-07T14:05:27.278Z,11.20
2017-11-07T14:07:55.765Z,10.07
2017-11-07T14:10:26.256Z,8.90
2017-11-07T14:12:54.723Z,10.67
2017-11-07T14:15:23.161Z,10.27
2017-11-07T14:17:51.582Z,8.30
2017-11-07T14:20:20.342Z,11.33
2017-11-07T14:22:48.810Z,12.50
2017-11-07T14:25:17.282Z,11.10
2017-11-07T14:27:46.906Z,11.50
2017-11-07T14:30:16.337Z,11.27
2017-11-07T14:32:45.140Z,11.20
2017-11-07T14:35:15.345Z,11.80
2017-11-07T14:37:43.801Z,12.50
2017-11-07T14:40:12.233Z,10.30
2017-11-07T14:42:40.714Z,11.40
2017-11-07T14:45:09.972Z,12.10
2017-11-07T14:47:38.786Z,11.30
2017-11-07T14:50:07.409Z,9.97
2017-11-07T14:52:36.612Z,11.80
2017-11-07T14:55:05.025Z,12.07
2017-11-07T14:57:34.361Z,11.80
2017-11-07T15:00:03.441Z,11.00
2017-11-07T15:02:32.760Z,12.23
2017-11-07T15:05:01.532Z,10.77
2017-11-07T15:07:30.935Z,12.17
2017-11-07T15:09:59.406Z,12.50
2017-11-07T15:12:28.713Z,9.87
2017-11-07T15:14:57.158Z,11.90
2017-11-07T15:17:25.579Z,12.50
2017-11-07T15:19:55.182Z,13.07
2017-11-07T15:22:23.597Z,11.47
2017-11-07T15:24:53.359Z,13.10
2017-11-07T15:27:22.818Z,15.03
2017-11-07T15:29:53.191Z,12.80
2017-11-07T15:32:21.649Z,15.00
2017-11-07T15:34:50.393Z,15.20
2017-11-07T15:37:20.120Z,14.23
2017-11-07T15:39:48.583Z,13.97
2017-11-07T15:42:17.877Z,14.70
2017-11-07T15:44:47.159Z,17.07
2017-11-07T15:47:15.626Z,14.93
2017-11-07T15:49:44.399Z,15.70
2017-11-07T15:52:12.864Z,14.87
2017-11-07T15:54:42.482Z,15.77
2017-11-07T15:57:12.260Z,14.20
2017-11-07T15:59:41.464Z,15.37
2017-11-07T16:02:10.709Z,16.27
2017-11-07T16:04:39.347Z,14.80
2017-11-07T16:07:09.270Z,15.10
2017-11-07T16:09:37.713Z,14.20
2017-11-07T16:12:06.190Z,15.00
2017-11-07T16:14:34.772Z,14.47
2017-11-07T16:17:03.185Z,15.73
2017-11-07T16:19:33.415Z,16.37
2017-11-07T16:22:02.600Z,16.70
2017-11-07T16:24:31.400Z,16.47
2017-11-07T16:27:00.255Z,17.33
2017-11-07T16:29:28.674Z,17.07
2017-11-07T16:31:57.106Z,15.10
2017-11-07T16:34:25.873Z,16.20
2017-11-07T16:36:54.360Z,19.47
2017-11-07T16:39:22.895Z,17.83
2017-11-07T16:41:52.102Z,18.40
2017-11-07T16:44:21.564Z,17.20
2017-11-07T16:46:50.423Z,17.97
2017-11-07T16:49:19.064Z,18.47
2017-11-07T16:51:47.767Z,16.60
2017-11-07T16:54:16.202Z,18.40
2017-11-07T16:56:45.200Z,18.57
2017-11-07T16:59:13.617Z,20.23
2017-11-07T17:01:42.097Z,20.50
2017-11-07T17:04:10.989Z,19.00
2017-11-07T17:06:40.687Z,19.43
2017-11-07T17:09:09.126Z,19.40
2017-11-07T17:11:38.147Z,20.27
2017-11-07T17:14:06.566Z,19.67
2017-11-07T17:16:36.109Z,20.27
2017-11-07T17:19:04.851Z,21.43
2017-11-07T17:21:33.277Z,19.23
2017-11-07T17:24:01.870Z,18.30
2017-11-07T17:26:30.495Z,19.37
2017-11-07T17:28:59.345Z,21.23
2017-11-07T17:31:27.775Z,19.63
2017-11-07T17:33:56.400Z,19.50
2017-11-07T17:36:24.887Z,15.43
2017-11-07T17:38:53.327Z,17.93
2017-11-07T17:41:21.997Z,19.00
2017-11-07T17:43:50.451Z,17.93
2017-11-07T17:46:18.853Z,18.47
2017-11-07T17:48:47.938Z,18.17
2017-11-07T17:51:17.130Z,18.93
2017-11-07T17:53:47.484Z,18.60
2017-11-07T17:56:15.973Z,18.80
2017-11-07T17:58:44.393Z,17.80
2017-11-07T18:01:14.312Z,17.33
2017-11-07T18:03:43.049Z,18.57
2017-11-07T18:06:11.559Z,19.37
2017-11-07T18:08:40.721Z,17.77
2017-11-07T18:11:09.405Z,19.03
2017-11-07T18:13:37.804Z,19.03
2017-11-07T18:16:06.213Z,17.37
2017-11-07T18:18:34.791Z,18.73
2017-11-07T18:21:03.186Z,19.60
2017-11-07T18:23:31.646Z,19.70
2017-11-07T18:26:00.215Z,16.70
2017-11-07T18:28:28.609Z,19.03
2017-11-07T18:30:57.088Z,18.50
2017-11-07T18:33:25.912Z,19.53
2017-11-07T18:35:55.104Z,18.30
2017-11-07T18:38:23.518Z,19.37
2017-11-07T18:40:52.176Z,21.23
2017-11-07T18:43:21.414Z,19.67
2017-11-07T18:45:49.848Z,19.97
2017-11-07T18:48:18.345Z,19.53
2017-11-07T18:50:47.565Z,19.77
2017-11-07T18:53:15.975Z,19.83
2017-11-07T18:55:44.964Z,20.17
2017-11-07T18:58:13.406Z,14.37
2017-11-07T19:00:41.837Z,16.07
2017-11-07T19:03:10.292Z,22.03
2017-11-07T19:05:38.701Z,17.20
2017-11-07T19:08:07.983Z,20.37
2017-11-07T19:10:36.480Z,17.40
2017-11-07T19:13:04.877Z,18.13
2017-11-07T19:15:33.312Z,21.17
2017-11-07T19:18:02.355Z,17.47
2017-11-07T19:20:31.704Z,18.13
2017-11-07T19:23:00.211Z,18.93
2017-11-07T19:25:28.875Z,20.40
2017-11-07T19:27:57.359Z,18.33
2017-11-07T19:30:26.556Z,19.07
2017-11-07T19:32:55.404Z,19.80
2017-11-07T19:35:23.844Z,19.67
2017-11-07T19:37:52.262Z,19.53
2017-11-07T19:40:21.280Z,18.57
2017-11-07T19:42:49.805Z,20.87
2017-11-07T19:45:18.574Z,19.27
2017-11-07T19:47:48.006Z,20.50
2017-11-07T19:50:16.418Z,20.20
2017-11-07T19:52:44.865Z,21.70
2017-11-07T19:55:13.326Z,21.10
2017-11-07T19:57:42.347Z,20.13
2017-11-07T20:00:10.761Z,12.97
2017-11-07T20:02:39.234Z,19.77
2017-11-07T20:05:08.340Z,18.63
2017-11-07T20:07:36.752Z,20.03
2017-11-07T20:10:05.686Z,21.03
2017-11-07T20:12:34.138Z,22.17
2017-11-07T20:15:02.566Z,16.80
2017-11-07T20:17:31.083Z,19.10
2017-11-07T20:19:59.476Z,21.17
2017-11-07T20:22:28.009Z,21.53
2017-11-07T20:24:56.476Z,20.10
2017-11-07T20:27:25.641Z,20.77
2017-11-07T20:29:54.048Z,21.97
2017-11-07T20:32:23.489Z,19.93
2017-11-07T20:34:52.137Z,19.60
2017-11-07T20:37:21.309Z,18.47
2017-11-07T20:39:50.032Z,19.23
2017-11-07T20:42:18.478Z,17.60
2017-11-07T20:44:46.897Z,18.27
2017-11-07T20:47:15.673Z,18.70
2017-11-07T20:49:44.288Z,18.60
2017-11-07T20:52:12.763Z,20.47
2017-11-07T20:54:41.691Z,20.00
2017-11-07T20:57:11.141Z,18.70
2017-11-07T20:59:41.042Z,17.70
2017-11-07T21:02:10.717Z,20.60
2017-11-07T21:04:40.240Z,19.23
2017-11-07T21:07:08.651Z,18.60
2017-11-07T21:09:37.098Z,18.87
2017-11-07T21:12:05.598Z,16.83
2017-11-07T21:14:34.113Z,16.50
2017-11-07T21:17:02.835Z,18.67
2017-11-07T21:19:35.371Z,18.60
2017-11-07T21:22:04.756Z,17.57
2017-11-07T21:24:33.417Z,17.40
2017-11-07T21:27:02.778Z,19.37
2017-11-07T21:29:31.588Z,20.60
2017-11-07T21:32:00.198Z,18.43
2017-11-07T21:34:29.451Z,18.17
2017-11-07T21:36:57.930Z,19.57
2017-11-07T21:39:26.369Z,18.83
2017-11-07T21:41:55.097Z,19.33
2017-11-07T21:44:23.633Z,18.23
2017-11-07T21:46:52.813Z,17.70
2017-11-07T21:49:22.157Z,20.13
2017-11-07T21:51:50.882Z,18.80
2017-11-07T21:54:19.319Z,19.33
2017-11-07T21:56:47.705Z,20.40
2017-11-07T21:59:18.705Z,19.57
2017-11-07T22:01:50.776Z,18.07
2017-11-07T22:04:20.117Z,17.93
2017-11-07T22:06:48.529Z,18.40
2017-11-07T22:09:17.741Z,17.60
2017-11-07T22:11:46.284Z,20.30
2017-11-07T22:14:14.906Z,19.73
2017-11-07T22:16:49.171Z,16.93
2017-11-07T22:19:20.498Z,20.33
2017-11-07T22:21:49.827Z,20.10
2017-11-07T22:24:18.286Z,20.23
2017-11-07T22:26:46.678Z,21.40
2017-11-07T22:29:15.073Z,21.70
2017-11-07T22:31:43.490Z,19.57
2017-11-07T22:34:11.933Z,20.93
2017-11-07T22:36:40.437Z,20.63
2017-11-07T22:39:09.196Z,22.53
2017-11-07T22:41:37.598Z,22.07
2017-11-07T22:44:06.766Z,23.07
2017-11-07T22:46:35.620Z,21.43
2017-11-07T22:49:04.824Z,21.00
2017-11-07T22:51:34.049Z,23.50
2017-11-07T22:54:02.692Z,22.67
2017-11-07T22:56:31.095Z,24.40
2017-11-07T22:58:59.492Z,23.30
2017-11-07T23:01:28.234Z,20.00
2017-11-07T23:03:56.866Z,21.80
2017-11-07T23:06:25.255Z,24.57
2017-11-07T23:08:54.101Z,21.00
2017-11-07T23:11:23.257Z,21.87
2017-11-07T23:13:51.687Z,20.07
2017-11-07T23:16:21.080Z,24.37
2017-11-07T23:18:49.527Z,21.63
2017-11-07T23:21:18.039Z,20.53
2017-11-07T23:23:47.267Z,23.13
2017-11-07T23:26:15.675Z,23.10
2017-11-07T23:28:44.078Z,19.70
2017-11-07T23:31:12.853Z,22.63
2017-11-07T23:33:41.269Z,19.83
2017-11-07T23:36:10.431Z,20.13
2017-11-07T23:38:39.280Z,19.67
2017-11-07T23:41:07.681Z,22.50
2017-11-07T23:43:36.092Z,21.03
2017-11-07T23:46:04.648Z,24.77
2017-11-07T23:48:33.036Z,22.03
2017-11-07T23:51:02.077Z,24.40
2017-11-07T23:53:30.521Z,22.60
2017-11-07T23:55:58.924Z,23.10
2017-11-07T23:58:29.935Z,21.40
